Accueil
METAR-TAF:

METAR-TAF

Aéroports :

Aéroport international Maiquetía - Simón Bolívar

Caracas, Venezuela

latitude: 10-36N, longitude: 066-59W, altitude: 43 m

Observation

Le bulletin a été fait il y a 43 minutes, à 00:00 UTC
Vent 4 kt de sud-est
Température 29°C
Humidité 70%
Pression 1009 hPa
Visibilité 10 km ou plus
Nuages fragmentés à une hauteur de 1600 ft

METAR: SVMI 120000Z 14004KT 9999 BKN016 29/23 Q1009

Heure: 20:43 (00:43 UTC)

Prévision

Le bulletin a été fait il y a 8 heures et 43 minutes, à 16:00 UTC
Prévision valable du 10 à 18 UTC au 11 à 18 UTC
Vent 6 kt de est
Visibilité 10 km ou plus
Quelques nuages à une hauteur de 1600 ft
Evoluant progressivement
du 10 à 18 UTC au 10 à 23 UTC
Vent 8 kt de est/nord-est
Nuages épars à une hauteur de 1600 ft

TAF: SVMI 101600Z 1018/1118 09006KT 9999 FEW016 TX32/20Z TN23/08Z BECMG 1018/1023 07008KT SCT016

Observations et prévisions météorologiques de plus de 4000 aéroports (messages METAR et TAF).

Les stations disponibles sont représentées par des disques jaunes et rouges sur la carte.

Passer la souris dessus pour voir le nom de la station.

Cliquer dessus pour voir les observations et prévisions météorologiques.

Pour changer de carte: cliquez sur les boutons verts avec une croix noire pour zoomer, sur le bouton vert avec un tiret pour effectuer un zoom arrière, ou sur les flèches vertes pour les cartes adjacentes.


METAR-TAF: